sensor_id;sensor_type;location;lat;lon;timestamp;pressure;altitude;pressure_sealevel;temperature;humidity
2268;BME280;11052;43.338;25.502;2023-07-20T00:01:08;100171.47;;;24.51;100.00
2268;BME280;11052;43.338;25.502;2023-07-20T00:03:37;100144.38;;;24.38;100.00
2268;BME280;11052;43.338;25.502;2023-07-20T00:06:04;100151.63;;;24.36;100.00
2268;BME280;11052;43.338;25.502;2023-07-20T00:08:32;100135.84;;;24.25;100.00
2268;BME280;11052;43.338;25.502;2023-07-20T00:10:59;100128.19;;;24.22;100.00
2268;BME280;11052;43.338;25.502;2023-07-20T00:13:27;100134.84;;;24.07;100.00
2268;BME280;11052;43.338;25.502;2023-07-20T00:15:55;100134.56;;;24.00;100.00
2268;BME280;11052;43.338;25.502;2023-07-20T00:18:22;100120.44;;;23.90;100.00
2268;BME280;11052;43.338;25.502;2023-07-20T00:20:56;100099.06;;;23.63;100.00
2268;BME280;11052;43.338;25.502;2023-07-20T00:23:26;100092.09;;;23.62;100.00
2268;BME280;11052;43.338;25.502;2023-07-20T00:25:53;100101.28;;;23.67;100.00
2268;BME280;11052;43.338;25.502;2023-07-20T00:28:21;100089.84;;;23.57;100.00
2268;BME280;11052;43.338;25.502;2023-07-20T00:30:48;100079.97;;;23.59;100.00
2268;BME280;11052;43.338;25.502;2023-07-20T00:33:17;100128.44;;;23.60;100.00
2268;BME280;11052;43.338;25.502;2023-07-20T00:35:44;100171.94;;;23.46;100.00
2268;BME280;11052;43.338;25.502;2023-07-20T00:38:13;100150.69;;;23.27;100.00
2268;BME280;11052;43.338;25.502;2023-07-20T00:40:42;100140.00;;;23.07;100.00
2268;BME280;11052;43.338;25.502;2023-07-20T00:43:10;100136.38;;;22.87;100.00
2268;BME280;11052;43.338;25.502;2023-07-20T00:45:38;100090.72;;;22.85;100.00
2268;BME280;11052;43.338;25.502;2023-07-20T00:48:07;100062.78;;;22.72;100.00
2268;BME280;11052;43.338;25.502;2023-07-20T00:50:35;100033.34;;;22.55;100.00
2268;BME280;11052;43.338;25.502;2023-07-20T00:53:03;99961.84;;;22.47;100.00
2268;BME280;11052;43.338;25.502;2023-07-20T00:55:34;99902.66;;;22.29;100.00
2268;BME280;11052;43.338;25.502;2023-07-20T00:58:01;99960.03;;;22.27;100.00
2268;BME280;11052;43.338;25.502;2023-07-20T01:00:29;99978.34;;;22.40;100.00
2268;BME280;11052;43.338;25.502;2023-07-20T01:02:57;99938.78;;;22.29;100.00
2268;BME280;11052;43.338;25.502;2023-07-20T01:05:33;99903.16;;;22.23;100.00
2268;BME280;11052;43.338;25.502;2023-07-20T01:08:07;99880.38;;;22.22;100.00
2268;BME280;11052;43.338;25.502;2023-07-20T01:10:44;99896.78;;;22.26;100.00
2268;BME280;11052;43.338;25.502;2023-07-20T01:13:14;99914.19;;;22.28;100.00
2268;BME280;11052;43.338;25.502;2023-07-20T01:15:42;99920.81;;;22.22;100.00
2268;BME280;11052;43.338;25.502;2023-07-20T01:18:16;99944.44;;;22.03;100.00
2268;BME280;11052;43.338;25.502;2023-07-20T01:20:43;99915.69;;;21.89;100.00
2268;BME280;11052;43.338;25.502;2023-07-20T01:23:29;99918.31;;;21.89;100.00
2268;BME280;11052;43.338;25.502;2023-07-20T01:26:17;99911.56;;;21.96;100.00
2268;BME280;11052;43.338;25.502;2023-07-20T01:29:16;99879.78;;;21.98;100.00
2268;BME280;11052;43.338;25.502;2023-07-20T01:31:50;99843.41;;;22.01;100.00
2268;BME280;11052;43.338;25.502;2023-07-20T01:34:19;99825.56;;;21.93;100.00
2268;BME280;11052;43.338;25.502;2023-07-20T01:36:50;99829.34;;;22.01;100.00
2268;BME280;11052;43.338;25.502;2023-07-20T01:39:18;99844.44;;;21.89;100.00
2268;BME280;11052;43.338;25.502;2023-07-20T01:41:46;99842.06;;;21.65;100.00
2268;BME280;11052;43.338;25.502;2023-07-20T01:44:14;99848.03;;;21.46;100.00
2268;BME280;11052;43.338;25.502;2023-07-20T01:46:42;99858.84;;;21.43;100.00
2268;BME280;11052;43.338;25.502;2023-07-20T01:49:11;99867.28;;;21.58;100.00
2268;BME280;11052;43.338;25.502;2023-07-20T01:51:38;99864.41;;;21.61;100.00
2268;BME280;11052;43.338;25.502;2023-07-20T01:54:07;99859.13;;;21.61;100.00
2268;BME280;11052;43.338;25.502;2023-07-20T01:56:34;99874.34;;;21.57;100.00
2268;BME280;11052;43.338;25.502;2023-07-20T01:59:02;99877.34;;;21.64;100.00
2268;BME280;11052;43.338;25.502;2023-07-20T02:01:29;99870.88;;;21.78;100.00
2268;BME280;11052;43.338;25.502;2023-07-20T02:03:57;99866.19;;;21.81;100.00
2268;BME280;11052;43.338;25.502;2023-07-20T02:06:26;99870.38;;;21.84;100.00
2268;BME280;11052;43.338;25.502;2023-07-20T02:08:53;99873.00;;;21.84;100.00
2268;BME280;11052;43.338;25.502;2023-07-20T02:11:21;99873.72;;;21.86;100.00
2268;BME280;11052;43.338;25.502;2023-07-20T02:13:48;99883.50;;;21.74;100.00
2268;BME280;11052;43.338;25.502;2023-07-20T02:16:23;99885.88;;;21.77;100.00
2268;BME280;11052;43.338;25.502;2023-07-20T02:19:14;99889.94;;;21.81;100.00
2268;BME280;11052;43.338;25.502;2023-07-20T02:21:43;99892.00;;;21.78;100.00
2268;BME280;11052;43.338;25.502;2023-07-20T02:24:12;99900.34;;;21.83;100.00
2268;BME280;11052;43.338;25.502;2023-07-20T02:26:48;99893.59;;;21.69;100.00
2268;BME280;11052;43.338;25.502;2023-07-20T02:29:44;99909.53;;;21.68;100.00
2268;BME280;11052;43.338;25.502;2023-07-20T02:32:12;99914.97;;;21.66;100.00
2268;BME280;11052;43.338;25.502;2023-07-20T02:34:40;99913.84;;;21.69;100.00
2268;BME280;11052;43.338;25.502;2023-07-20T02:37:07;99909.03;;;21.74;100.00
2268;BME280;11052;43.338;25.502;2023-07-20T02:39:35;99904.97;;;21.70;100.00
2268;BME280;11052;43.338;25.502;2023-07-20T02:42:02;99906.53;;;21.72;100.00
2268;BME280;11052;43.338;25.502;2023-07-20T02:44:30;99919.47;;;21.75;100.00
2268;BME280;11052;43.338;25.502;2023-07-20T02:46:59;99915.28;;;21.73;100.00
2268;BME280;11052;43.338;25.502;2023-07-20T02:49:26;99911.09;;;21.70;100.00
2268;BME280;11052;43.338;25.502;2023-07-20T02:51:54;99901.97;;;21.74;100.00
2268;BME280;11052;43.338;25.502;2023-07-20T02:54:22;99900.53;;;21.70;100.00
2268;BME280;11052;43.338;25.502;2023-07-20T02:56:49;99892.75;;;21.69;100.00
2268;BME280;11052;43.338;25.502;2023-07-20T02:59:16;99901.50;;;21.69;100.00
2268;BME280;11052;43.338;25.502;2023-07-20T03:01:44;99914.44;;;21.72;100.00
2268;BME280;11052;43.338;25.502;2023-07-20T03:04:13;99911.81;;;21.72;100.00
2268;BME280;11052;43.338;25.502;2023-07-20T03:06:42;99914.56;;;21.71;100.00
2268;BME280;11052;43.338;25.502;2023-07-20T03:09:09;99928.28;;;21.65;100.00
2268;BME280;11052;43.338;25.502;2023-07-20T03:11:37;99927.16;;;21.67;100.00
2268;BME280;11052;43.338;25.502;2023-07-20T03:14:04;99939.94;;;21.62;100.00
2268;BME280;11052;43.338;25.502;2023-07-20T03:16:32;99936.88;;;21.67;100.00
2268;BME280;11052;43.338;25.502;2023-07-20T03:19:00;99933.03;;;21.71;100.00
2268;BME280;11052;43.338;25.502;2023-07-20T03:21:29;99943.94;;;21.77;100.00
2268;BME280;11052;43.338;25.502;2023-07-20T03:23:57;99956.63;;;21.83;100.00
2268;BME280;11052;43.338;25.502;2023-07-20T03:26:24;99948.44;;;21.86;100.00
2268;BME280;11052;43.338;25.502;2023-07-20T03:28:51;99950.84;;;21.89;100.00
2268;BME280;11052;43.338;25.502;2023-07-20T03:31:19;99947.69;;;21.96;100.00
2268;BME280;11052;43.338;25.502;2023-07-20T03:33:47;99949.75;;;21.92;100.00
2268;BME280;11052;43.338;25.502;2023-07-20T03:36:15;99939.06;;;21.93;100.00
2268;BME280;11052;43.338;25.502;2023-07-20T03:38:44;99942.66;;;21.92;100.00
2268;BME280;11052;43.338;25.502;2023-07-20T03:41:11;99947.94;;;21.92;100.00
2268;BME280;11052;43.338;25.502;2023-07-20T03:43:40;99939.44;;;21.89;100.00
2268;BME280;11052;43.338;25.502;2023-07-20T03:46:08;99943.75;;;21.90;100.00
2268;BME280;11052;43.338;25.502;2023-07-20T03:48:35;99954.44;;;21.88;100.00
2268;BME280;11052;43.338;25.502;2023-07-20T03:51:03;99953.56;;;21.99;100.00
2268;BME280;11052;43.338;25.502;2023-07-20T03:53:30;99951.28;;;22.06;100.00
2268;BME280;11052;43.338;25.502;2023-07-20T03:56:00;99946.13;;;22.04;100.00
2268;BME280;11052;43.338;25.502;2023-07-20T03:58:27;99949.34;;;22.08;100.00
2268;BME280;11052;43.338;25.502;2023-07-20T04:00:55;99962.88;;;22.14;100.00
2268;BME280;11052;43.338;25.502;2023-07-20T04:03:24;99969.69;;;22.17;100.00
2268;BME280;11052;43.338;25.502;2023-07-20T04:05:53;99961.19;;;22.13;100.00
2268;BME280;11052;43.338;25.502;2023-07-20T04:08:21;99959.59;;;22.22;100.00
2268;BME280;11052;43.338;25.502;2023-07-20T04:10:49;99954.63;;;22.29;100.00
2268;BME280;11052;43.338;25.502;2023-07-20T04:13:18;99964.28;;;22.39;100.00
2268;BME280;11052;43.338;25.502;2023-07-20T04:15:45;99965.84;;;22.42;100.00
2268;BME280;11052;43.338;25.502;2023-07-20T04:18:13;99955.09;;;22.34;100.00
2268;BME280;11052;43.338;25.502;2023-07-20T04:20:41;99938.97;;;22.37;100.00
2268;BME280;11052;43.338;25.502;2023-07-20T04:23:08;99938.31;;;22.44;100.00
2268;BME280;11052;43.338;25.502;2023-07-20T04:25:36;99923.88;;;22.48;100.00
2268;BME280;11052;43.338;25.502;2023-07-20T04:28:06;99913.06;;;22.51;100.00
2268;BME280;11052;43.338;25.502;2023-07-20T04:30:37;99914.31;;;22.57;100.00
2268;BME280;11052;43.338;25.502;2023-07-20T04:33:06;99911.53;;;22.58;100.00
2268;BME280;11052;43.338;25.502;2023-07-20T04:35:49;99912.34;;;22.80;100.00
2268;BME280;11052;43.338;25.502;2023-07-20T04:38:18;99929.63;;;22.84;100.00
2268;BME280;11052;43.338;25.502;2023-07-20T04:40:47;99934.09;;;22.93;100.00
2268;BME280;11052;43.338;25.502;2023-07-20T04:43:14;99918.56;;;23.09;100.00
2268;BME280;11052;43.338;25.502;2023-07-20T04:45:44;99924.03;;;23.17;100.00
2268;BME280;11052;43.338;25.502;2023-07-20T04:48:12;99932.25;;;23.24;100.00
2268;BME280;11052;43.338;25.502;2023-07-20T04:50:42;99933.09;;;23.44;100.00
2268;BME280;11052;43.338;25.502;2023-07-20T04:53:10;99945.25;;;24.14;100.00
2268;BME280;11052;43.338;25.502;2023-07-20T04:55:39;99950.78;;;24.96;100.00
2268;BME280;11052;43.338;25.502;2023-07-20T04:58:07;99940.19;;;25.59;100.00
2268;BME280;11052;43.338;25.502;2023-07-20T05:00:34;99947.41;;;26.02;100.00
2268;BME280;11052;43.338;25.502;2023-07-20T05:03:04;99939.59;;;26.44;100.00
2268;BME280;11052;43.338;25.502;2023-07-20T05:05:31;99953.28;;;26.92;100.00
2268;BME280;11052;43.338;25.502;2023-07-20T05:07:59;99950.78;;;27.24;100.00
2268;BME280;11052;43.338;25.502;2023-07-20T05:10:26;99958.88;;;27.57;100.00
2268;BME280;11052;43.338;25.502;2023-07-20T05:12:54;99964.06;;;27.91;100.00
2268;BME280;11052;43.338;25.502;2023-07-20T05:15:21;99975.44;;;28.25;100.00
2268;BME280;11052;43.338;25.502;2023-07-20T05:17:49;99982.94;;;28.38;100.00
2268;BME280;11052;43.338;25.502;2023-07-20T05:20:18;99978.75;;;28.52;100.00
2268;BME280;11052;43.338;25.502;2023-07-20T05:22:46;99980.41;;;28.53;100.00
2268;BME280;11052;43.338;25.502;2023-07-20T05:25:14;99986.84;;;28.75;100.00
2268;BME280;11052;43.338;25.502;2023-07-20T05:27:45;99981.34;;;28.76;100.00
2268;BME280;11052;43.338;25.502;2023-07-20T05:30:13;99982.81;;;28.95;100.00
2268;BME280;11052;43.338;25.502;2023-07-20T05:32:40;99993.63;;;29.01;100.00
2268;BME280;11052;43.338;25.502;2023-07-20T05:35:08;99987.53;;;29.24;100.00
2268;BME280;11052;43.338;25.502;2023-07-20T05:37:38;99992.19;;;29.30;100.00
2268;BME280;11052;43.338;25.502;2023-07-20T05:40:07;99991.72;;;29.57;100.00
2268;BME280;11052;43.338;25.502;2023-07-20T05:42:36;99984.53;;;29.58;100.00
2268;BME280;11052;43.338;25.502;2023-07-20T05:45:04;99986.78;;;29.69;100.00
2268;BME280;11052;43.338;25.502;2023-07-20T05:47:32;99984.31;;;29.67;100.00
2268;BME280;11052;43.338;25.502;2023-07-20T05:50:01;99988.44;;;30.01;100.00
2268;BME280;11052;43.338;25.502;2023-07-20T05:52:29;99977.03;;;30.07;100.00
2268;BME280;11052;43.338;25.502;2023-07-20T05:54:58;99973.56;;;30.36;100.00
2268;BME280;11052;43.338;25.502;2023-07-20T05:57:26;99976.81;;;30.31;100.00
2268;BME280;11052;43.338;25.502;2023-07-20T05:59:53;99977.56;;;30.55;100.00
2268;BME280;11052;43.338;25.502;2023-07-20T06:02:20;99973.47;;;30.82;100.00
2268;BME280;11052;43.338;25.502;2023-07-20T06:04:48;99973.28;;;30.69;100.00
2268;BME280;11052;43.338;25.502;2023-07-20T06:07:16;99980.66;;;30.96;100.00
2268;BME280;11052;43.338;25.502;2023-07-20T06:09:43;99981.53;;;31.33;100.00
2268;BME280;11052;43.338;25.502;2023-07-20T06:12:13;99977.25;;;31.53;100.00
2268;BME280;11052;43.338;25.502;2023-07-20T06:14:40;99974.00;;;31.57;100.00
2268;BME280;11052;43.338;25.502;2023-07-20T06:17:07;99975.88;;;31.42;100.00
2268;BME280;11052;43.338;25.502;2023-07-20T06:19:35;99975.41;;;31.53;100.00
2268;BME280;11052;43.338;25.502;2023-07-20T06:22:03;99973.34;;;31.70;100.00
2268;BME280;11052;43.338;25.502;2023-07-20T06:24:31;99970.72;;;31.98;100.00
2268;BME280;11052;43.338;25.502;2023-07-20T06:26:58;99965.44;;;32.11;100.00
2268;BME280;11052;43.338;25.502;2023-07-20T06:29:27;99972.91;;;32.16;100.00
2268;BME280;11052;43.338;25.502;2023-07-20T06:31:55;99960.09;;;32.33;100.00
2268;BME280;11052;43.338;25.502;2023-07-20T06:34:23;99958.53;;;32.45;100.00
2268;BME280;11052;43.338;25.502;2023-07-20T06:36:50;99948.50;;;32.60;100.00
2268;BME280;11052;43.338;25.502;2023-07-20T06:39:18;99949.78;;;32.64;100.00
2268;BME280;11052;43.338;25.502;2023-07-20T06:41:45;99948.78;;;32.72;100.00
2268;BME280;11052;43.338;25.502;2023-07-20T06:44:13;99947.13;;;32.71;100.00
2268;BME280;11052;43.338;25.502;2023-07-20T06:46:42;99960.63;;;32.77;100.00
2268;BME280;11052;43.338;25.502;2023-07-20T06:49:09;99960.22;;;32.80;100.00
2268;BME280;11052;43.338;25.502;2023-07-20T06:51:37;99967.88;;;32.83;100.00
2268;BME280;11052;43.338;25.502;2023-07-20T06:54:04;99962.88;;;32.46;96.14
2268;BME280;11052;43.338;25.502;2023-07-20T06:56:32;99962.72;;;32.26;97.60
2268;BME280;11052;43.338;25.502;2023-07-20T06:58:59;99966.78;;;32.22;99.30
2268;BME280;11052;43.338;25.502;2023-07-20T07:01:28;99974.19;;;32.20;100.00
2268;BME280;11052;43.338;25.502;2023-07-20T07:03:57;99982.66;;;31.96;98.57
2268;BME280;11052;43.338;25.502;2023-07-20T07:06:25;99972.16;;;32.22;100.00
2268;BME280;11052;43.338;25.502;2023-07-20T07:08:53;99978.03;;;32.60;100.00
2268;BME280;11052;43.338;25.502;2023-07-20T07:11:20;99979.94;;;33.01;98.66
2268;BME280;11052;43.338;25.502;2023-07-20T07:13:48;99989.66;;;33.43;100.00
2268;BME280;11052;43.338;25.502;2023-07-20T07:16:17;99993.19;;;33.50;100.00
2268;BME280;11052;43.338;25.502;2023-07-20T07:18:45;99990.56;;;33.76;94.89
2268;BME280;11052;43.338;25.502;2023-07-20T07:21:14;99995.34;;;33.81;100.00
2268;BME280;11052;43.338;25.502;2023-07-20T07:23:43;99998.66;;;33.96;91.55
2268;BME280;11052;43.338;25.502;2023-07-20T07:26:11;99991.59;;;33.69;93.55
2268;BME280;11052;43.338;25.502;2023-07-20T07:28:38;99993.47;;;33.27;86.54
2268;BME280;11052;43.338;25.502;2023-07-20T07:31:06;99996.44;;;32.98;87.59
2268;BME280;11052;43.338;25.502;2023-07-20T07:33:34;99999.13;;;32.98;88.02
2268;BME280;11052;43.338;25.502;2023-07-20T07:36:02;99992.00;;;33.18;92.18
2268;BME280;11052;43.338;25.502;2023-07-20T07:38:31;100008.44;;;33.36;82.36
2268;BME280;11052;43.338;25.502;2023-07-20T07:40:59;100000.63;;;33.48;89.02
2268;BME280;11052;43.338;25.502;2023-07-20T07:43:26;100007.28;;;33.65;92.28
2268;BME280;11052;43.338;25.502;2023-07-20T07:45:54;100013.53;;;33.79;86.45
2268;BME280;11052;43.338;25.502;2023-07-20T07:48:22;100006.88;;;33.68;89.11
2268;BME280;11052;43.338;25.502;2023-07-20T07:50:51;100010.38;;;33.55;81.75
2268;BME280;11052;43.338;25.502;2023-07-20T07:53:18;100010.66;;;33.87;88.85
2268;BME280;11052;43.338;25.502;2023-07-20T07:55:50;100013.38;;;34.07;85.13
2268;BME280;11052;43.338;25.502;2023-07-20T07:58:18;100009.03;;;34.06;83.09
2268;BME280;11052;43.338;25.502;2023-07-20T08:00:45;100005.16;;;33.47;78.92
2268;BME280;11052;43.338;25.502;2023-07-20T08:03:13;99999.75;;;33.34;87.57
2268;BME280;11052;43.338;25.502;2023-07-20T08:05:41;99998.44;;;33.78;83.76
2268;BME280;11052;43.338;25.502;2023-07-20T08:08:08;99999.94;;;34.13;86.98
2268;BME280;11052;43.338;25.502;2023-07-20T08:10:36;99995.41;;;34.34;85.50
2268;BME280;11052;43.338;25.502;2023-07-20T08:13:05;99994.97;;;34.30;82.57
2268;BME280;11052;43.338;25.502;2023-07-20T08:15:32;99999.97;;;34.33;75.27
2268;BME280;11052;43.338;25.502;2023-07-20T08:18:00;99993.31;;;34.49;82.62
2268;BME280;11052;43.338;25.502;2023-07-20T08:20:27;99990.41;;;34.57;76.24
2268;BME280;11052;43.338;25.502;2023-07-20T08:22:55;99987.09;;;34.22;71.92
2268;BME280;11052;43.338;25.502;2023-07-20T08:25:23;99984.59;;;34.27;71.44
2268;BME280;11052;43.338;25.502;2023-07-20T08:27:51;99985.44;;;34.54;77.21
2268;BME280;11052;43.338;25.502;2023-07-20T08:30:21;99985.25;;;34.49;76.76
2268;BME280;11052;43.338;25.502;2023-07-20T08:32:50;99988.34;;;34.46;70.08
2268;BME280;11052;43.338;25.502;2023-07-20T08:35:17;99994.56;;;34.40;70.09
2268;BME280;11052;43.338;25.502;2023-07-20T08:37:45;99992.63;;;34.73;75.75
2268;BME280;11052;43.338;25.502;2023-07-20T08:40:14;100008.38;;;34.76;71.04
2268;BME280;11052;43.338;25.502;2023-07-20T08:42:42;100007.75;;;34.74;67.44
2268;BME280;11052;43.338;25.502;2023-07-20T08:45:13;100007.72;;;35.01;67.90
2268;BME280;11052;43.338;25.502;2023-07-20T08:47:43;100010.78;;;35.17;67.46
2268;BME280;11052;43.338;25.502;2023-07-20T08:50:12;100004.69;;;35.42;70.56
2268;BME280;11052;43.338;25.502;2023-07-20T08:52:41;100010.81;;;35.56;65.52
2268;BME280;11052;43.338;25.502;2023-07-20T08:55:09;100020.41;;;35.52;62.68
2268;BME280;11052;43.338;25.502;2023-07-20T08:57:38;100014.41;;;35.50;65.50
2268;BME280;11052;43.338;25.502;2023-07-20T09:00:11;100024.63;;;35.41;62.70
2268;BME280;11052;43.338;25.502;2023-07-20T09:02:42;100036.03;;;35.30;68.34
2268;BME280;11052;43.338;25.502;2023-07-20T09:05:12;100024.09;;;35.06;63.25
2268;BME280;11052;43.338;25.502;2023-07-20T09:07:40;100024.47;;;35.16;67.07
2268;BME280;11052;43.338;25.502;2023-07-20T09:10:08;100031.72;;;35.22;65.40
2268;BME280;11052;43.338;25.502;2023-07-20T09:12:37;100020.66;;;35.43;65.21
2268;BME280;11052;43.338;25.502;2023-07-20T09:15:06;100017.53;;;35.46;61.56
2268;BME280;11052;43.338;25.502;2023-07-20T09:17:34;100013.00;;;35.40;63.96
2268;BME280;11052;43.338;25.502;2023-07-20T09:20:04;100015.16;;;35.12;62.25
2268;BME280;11052;43.338;25.502;2023-07-20T09:22:34;100007.03;;;35.19;66.53
2268;BME280;11052;43.338;25.502;2023-07-20T09:25:02;99993.97;;;35.22;62.00
2268;BME280;11052;43.338;25.502;2023-07-20T09:27:36;99990.19;;;35.43;63.05
2268;BME280;11052;43.338;25.502;2023-07-20T09:30:05;99996.47;;;35.62;64.89
2268;BME280;11052;43.338;25.502;2023-07-20T09:32:39;99985.03;;;35.66;65.44
2268;BME280;11052;43.338;25.502;2023-07-20T09:35:14;99963.03;;;35.69;63.65
2268;BME280;11052;43.338;25.502;2023-07-20T09:37:46;99968.31;;;35.89;67.18
2268;BME280;11052;43.338;25.502;2023-07-20T09:40:18;99969.31;;;35.95;63.26
2268;BME280;11052;43.338;25.502;2023-07-20T09:42:46;99950.75;;;36.05;63.17
2268;BME280;11052;43.338;25.502;2023-07-20T09:45:14;99945.34;;;36.05;59.88
2268;BME280;11052;43.338;25.502;2023-07-20T09:47:41;99939.56;;;36.01;65.81
2268;BME280;11052;43.338;25.502;2023-07-20T09:50:09;99939.50;;;36.08;61.76
2268;BME280;11052;43.338;25.502;2023-07-20T09:52:40;99922.09;;;36.04;60.91
2268;BME280;11052;43.338;25.502;2023-07-20T09:55:10;99916.78;;;35.97;62.39
2268;BME280;11052;43.338;25.502;2023-07-20T09:57:38;99907.34;;;35.82;59.58
2268;BME280;11052;43.338;25.502;2023-07-20T10:00:07;99916.59;;;35.61;62.15
2268;BME280;11052;43.338;25.502;2023-07-20T10:02:43;99912.41;;;35.40;63.95
2268;BME280;11052;43.338;25.502;2023-07-20T10:05:12;99913.03;;;35.67;64.04
2268;BME280;11052;43.338;25.502;2023-07-20T10:07:47;99918.97;;;35.82;59.77
2268;BME280;11052;43.338;25.502;2023-07-20T10:10:16;99930.69;;;35.94;62.56
2268;BME280;11052;43.338;25.502;2023-07-20T10:12:46;99931.44;;;35.76;59.88
2268;BME280;11052;43.338;25.502;2023-07-20T10:15:19;99942.59;;;36.11;60.74
2268;BME280;11052;43.338;25.502;2023-07-20T10:17:56;99932.47;;;36.32;59.30
2268;BME280;11052;43.338;25.502;2023-07-20T10:20:25;99937.88;;;36.32;61.96
2268;BME280;11052;43.338;25.502;2023-07-20T10:22:55;99938.13;;;35.99;58.55
2268;BME280;11052;43.338;25.502;2023-07-20T10:25:24;99931.09;;;35.98;60.65
2268;BME280;11052;43.338;25.502;2023-07-20T10:27:52;99925.91;;;35.96;60.90
2268;BME280;11052;43.338;25.502;2023-07-20T10:30:20;99923.72;;;36.11;60.48
2268;BME280;11052;43.338;25.502;2023-07-20T10:32:48;99922.81;;;36.18;60.82
2268;BME280;11052;43.338;25.502;2023-07-20T10:35:18;99921.66;;;36.07;60.91
2268;BME280;11052;43.338;25.502;2023-07-20T10:37:47;99924.00;;;36.28;59.52
2268;BME280;11052;43.338;25.502;2023-07-20T10:40:32;99924.22;;;36.45;60.77
2268;BME280;11052;43.338;25.502;2023-07-20T10:43:02;99921.00;;;36.36;59.02
2268;BME280;11052;43.338;25.502;2023-07-20T10:45:51;99916.81;;;36.16;58.24
2268;BME280;11052;43.338;25.502;2023-07-20T10:48:20;99908.66;;;36.22;58.37
2268;BME280;11052;43.338;25.502;2023-07-20T10:51:09;99899.91;;;36.27;61.61
2268;BME280;11052;43.338;25.502;2023-07-20T10:53:37;99911.16;;;36.42;57.33
2268;BME280;11052;43.338;25.502;2023-07-20T10:56:11;99902.59;;;36.45;59.27
2268;BME280;11052;43.338;25.502;2023-07-20T10:58:40;99895.94;;;36.29;59.38
2268;BME280;11052;43.338;25.502;2023-07-20T11:01:08;99893.72;;;36.20;58.43
2268;BME280;11052;43.338;25.502;2023-07-20T11:03:37;99888.50;;;36.00;57.84
2268;BME280;11052;43.338;25.502;2023-07-20T11:06:30;99893.78;;;36.13;59.30
2268;BME280;11052;43.338;25.502;2023-07-20T11:09:04;99886.38;;;35.84;57.90
2268;BME280;11052;43.338;25.502;2023-07-20T11:11:36;99878.47;;;35.57;56.73
2268;BME280;11052;43.338;25.502;2023-07-20T11:14:05;99878.69;;;35.56;55.39
2268;BME280;11052;43.338;25.502;2023-07-20T11:16:38;99879.19;;;35.71;60.22
2268;BME280;11052;43.338;25.502;2023-07-20T11:19:06;99876.91;;;35.99;59.30
2268;BME280;11052;43.338;25.502;2023-07-20T11:21:42;99883.88;;;36.07;56.99
2268;BME280;11052;43.338;25.502;2023-07-20T11:24:10;99880.75;;;36.10;57.66
2268;BME280;11052;43.338;25.502;2023-07-20T11:26:45;99866.53;;;35.96;57.33
2268;BME280;11052;43.338;25.502;2023-07-20T11:29:13;99858.44;;;35.96;56.31
2268;BME280;11052;43.338;25.502;2023-07-20T11:31:43;99853.75;;;36.10;59.68
2268;BME280;11052;43.338;25.502;2023-07-20T11:34:12;99846.91;;;36.32;57.41
2268;BME280;11052;43.338;25.502;2023-07-20T11:36:41;99845.81;;;36.15;56.79
2268;BME280;11052;43.338;25.502;2023-07-20T11:39:09;99840.19;;;36.17;60.30
2268;BME280;11052;43.338;25.502;2023-07-20T11:41:38;99838.84;;;36.26;56.91
2268;BME280;11052;43.338;25.502;2023-07-20T11:44:09;99831.31;;;36.34;57.53
2268;BME280;11052;43.338;25.502;2023-07-20T11:46:39;99836.13;;;36.44;57.80
2268;BME280;11052;43.338;25.502;2023-07-20T11:49:07;99834.19;;;36.51;57.61
2268;BME280;11052;43.338;25.502;2023-07-20T11:51:34;99833.78;;;36.66;55.57
2268;BME280;11052;43.338;25.502;2023-07-20T11:54:07;99843.56;;;36.85;57.51
2268;BME280;11052;43.338;25.502;2023-07-20T11:56:35;99836.03;;;36.87;54.62
2268;BME280;11052;43.338;25.502;2023-07-20T11:59:03;99840.34;;;36.76;55.85
2268;BME280;11052;43.338;25.502;2023-07-20T12:01:32;99834.03;;;36.83;54.08
2268;BME280;11052;43.338;25.502;2023-07-20T12:04:01;99822.63;;;36.81;53.84
2268;BME280;11052;43.338;25.502;2023-07-20T12:06:30;99820.53;;;36.64;51.53
2268;BME280;11052;43.338;25.502;2023-07-20T12:08:58;99815.44;;;36.56;49.49
2268;BME280;11052;43.338;25.502;2023-07-20T12:11:34;99805.53;;;36.50;50.64
2268;BME280;11052;43.338;25.502;2023-07-20T12:14:02;99791.06;;;36.26;49.60
2268;BME280;11052;43.338;25.502;2023-07-20T12:16:32;99787.53;;;36.07;51.05
2268;BME280;11052;43.338;25.502;2023-07-20T12:19:00;99786.09;;;35.62;51.39
2268;BME280;11052;43.338;25.502;2023-07-20T12:21:28;99787.47;;;35.21;52.30
2268;BME280;11052;43.338;25.502;2023-07-20T12:23:57;99785.69;;;35.08;54.38
2268;BME280;11052;43.338;25.502;2023-07-20T12:26:25;99776.84;;;34.95;55.78
2268;BME280;11052;43.338;25.502;2023-07-20T12:28:53;99780.34;;;35.02;57.12
2268;BME280;11052;43.338;25.502;2023-07-20T12:31:21;99786.72;;;35.07;56.01
2268;BME280;11052;43.338;25.502;2023-07-20T12:33:51;99778.91;;;34.99;54.75
2268;BME280;11052;43.338;25.502;2023-07-20T12:36:21;99774.25;;;34.81;53.45
2268;BME280;11052;43.338;25.502;2023-07-20T12:38:48;99782.13;;;34.83;55.19
2268;BME280;11052;43.338;25.502;2023-07-20T12:41:16;99782.25;;;34.95;54.44
2268;BME280;11052;43.338;25.502;2023-07-20T12:43:44;99778.91;;;34.99;55.44
2268;BME280;11052;43.338;25.502;2023-07-20T12:46:13;99775.34;;;35.05;56.58
2268;BME280;11052;43.338;25.502;2023-07-20T12:48:41;99757.59;;;35.23;58.94
2268;BME280;11052;43.338;25.502;2023-07-20T12:51:11;99755.78;;;35.16;58.08
2268;BME280;11052;43.338;25.502;2023-07-20T12:53:39;99758.47;;;34.85;55.23
2268;BME280;11052;43.338;25.502;2023-07-20T12:56:06;99761.78;;;34.87;56.08
2268;BME280;11052;43.338;25.502;2023-07-20T12:58:34;99758.31;;;34.73;56.44
2268;BME280;11052;43.338;25.502;2023-07-20T13:01:02;99753.94;;;34.41;56.24
2268;BME280;11052;43.338;25.502;2023-07-20T13:03:30;99745.94;;;34.66;56.35